MMZH/ZIH METAR and TAF weather

Enter ICAO airport designator
Station Type Date Time Source
MMZH METAR 2021/01/17 18:43 UTC NOAA

MMZH 171843Z E22005KT 7SM FEW020 BKN250 31/23 A2994 RMK 8/108 HZY


Station Type Date Time Source
MMZH Decoded METAR 2021/01/17 18:43 UTC NOAA

Ixtapa-Zihuatanejo, Mexico (MMZH) 17-36N 101-28W
Jan 17, 2021 - 01:43 PM EST / 2021.01.17 1843 UTC
Visibility: 7 mile(s):0
Sky conditions: mostly cloudy
Temperature: 87 F (31 C)
Heat index: 93.9 F (34.4 C):1
Dew Point: 73 F (23 C)
Relative Humidity: 62%
Pressure (altimeter): 29.94 in. Hg (1013 hPa)
ob: MMZH 171843Z E22005KT 7SM FEW020 BKN250 31/23 A2994 RMK 8/108 HZY
cycle: 18

Station Type Date Time Source
MMZH TAF 2021/01/17 18:46 UTC NOAA

TAF MMZH 171640Z 1718/1818 22010KT P6SM SCT100 SCT250
FM180600 00000KT P6SM BKN100 BKN250
FM181200 00000KT P6SM SCT100 SCT250

Example: see airport list